sensor_id;sensor_type;location;lat;lon;timestamp;P1;durP1;ratioP1;P2;durP2;ratioP2
37983;SDS011;64625;50.882;4.376;2023-05-02T00:02:15;57.85;;;21.77;;
37983;SDS011;64625;50.882;4.376;2023-05-02T00:04:41;46.90;;;21.50;;
37983;SDS011;64625;50.882;4.376;2023-05-02T00:07:07;58.67;;;24.27;;
37983;SDS011;64625;50.882;4.376;2023-05-02T00:09:33;52.08;;;22.98;;
37983;SDS011;64625;50.882;4.376;2023-05-02T00:11:59;38.35;;;17.52;;
37983;SDS011;64625;50.882;4.376;2023-05-02T00:14:25;57.85;;;23.00;;
37983;SDS011;64625;50.882;4.376;2023-05-02T00:16:51;75.47;;;28.17;;
37983;SDS011;64625;50.882;4.376;2023-05-02T00:19:16;59.97;;;26.38;;
37983;SDS011;64625;50.882;4.376;2023-05-02T00:21:42;64.22;;;26.23;;
37983;SDS011;64625;50.882;4.376;2023-05-02T00:24:13;69.50;;;28.27;;
37983;SDS011;64625;50.882;4.376;2023-05-02T00:26:40;75.57;;;29.33;;
37983;SDS011;64625;50.882;4.376;2023-05-02T00:29:06;60.85;;;28.70;;
37983;SDS011;64625;50.882;4.376;2023-05-02T00:31:32;55.47;;;25.17;;
37983;SDS011;64625;50.882;4.376;2023-05-02T00:33:58;72.70;;;29.02;;
37983;SDS011;64625;50.882;4.376;2023-05-02T00:36:24;61.92;;;27.83;;
37983;SDS011;64625;50.882;4.376;2023-05-02T00:38:51;64.35;;;28.65;;
37983;SDS011;64625;50.882;4.376;2023-05-02T00:41:17;53.42;;;24.83;;
37983;SDS011;64625;50.882;4.376;2023-05-02T00:43:43;67.50;;;23.98;;
37983;SDS011;64625;50.882;4.376;2023-05-02T00:46:09;59.60;;;26.98;;
37983;SDS011;64625;50.882;4.376;2023-05-02T00:48:36;67.40;;;27.13;;
37983;SDS011;64625;50.882;4.376;2023-05-02T00:51:03;57.90;;;29.40;;
37983;SDS011;64625;50.882;4.376;2023-05-02T00:53:30;63.15;;;28.27;;
37983;SDS011;64625;50.882;4.376;2023-05-02T00:55:58;69.22;;;28.38;;
37983;SDS011;64625;50.882;4.376;2023-05-02T00:58:25;66.78;;;29.58;;
37983;SDS011;64625;50.882;4.376;2023-05-02T01:06:23;58.40;;;29.08;;
37983;SDS011;64625;50.882;4.376;2023-05-02T01:09:27;63.67;;;30.40;;
37983;SDS011;64625;50.882;4.376;2023-05-02T01:14:40;65.72;;;30.38;;
37983;SDS011;64625;50.882;4.376;2023-05-02T01:17:10;71.28;;;31.23;;
37983;SDS011;64625;50.882;4.376;2023-05-02T01:19:39;67.07;;;30.80;;
37983;SDS011;64625;50.882;4.376;2023-05-02T01:22:08;65.68;;;29.02;;
37983;SDS011;64625;50.882;4.376;2023-05-02T01:24:59;58.97;;;29.38;;
37983;SDS011;64625;50.882;4.376;2023-05-02T01:30:18;71.53;;;28.98;;
37983;SDS011;64625;50.882;4.376;2023-05-02T01:32:46;68.80;;;30.73;;
37983;SDS011;64625;50.882;4.376;2023-05-02T01:35:16;64.05;;;31.05;;
37983;SDS011;64625;50.882;4.376;2023-05-02T01:37:45;62.38;;;29.73;;
37983;SDS011;64625;50.882;4.376;2023-05-02T01:40:15;66.15;;;30.40;;
37983;SDS011;64625;50.882;4.376;2023-05-02T01:42:43;76.03;;;30.67;;
37983;SDS011;64625;50.882;4.376;2023-05-02T01:45:11;68.60;;;31.77;;
37983;SDS011;64625;50.882;4.376;2023-05-02T01:47:38;77.53;;;33.53;;
37983;SDS011;64625;50.882;4.376;2023-05-02T01:50:07;70.20;;;29.70;;
37983;SDS011;64625;50.882;4.376;2023-05-02T01:52:39;64.28;;;31.20;;
37983;SDS011;64625;50.882;4.376;2023-05-02T01:55:06;63.00;;;30.10;;
37983;SDS011;64625;50.882;4.376;2023-05-02T01:57:36;69.33;;;28.80;;
37983;SDS011;64625;50.882;4.376;2023-05-02T02:00:05;62.92;;;30.13;;
37983;SDS011;64625;50.882;4.376;2023-05-02T02:02:33;63.05;;;30.58;;
37983;SDS011;64625;50.882;4.376;2023-05-02T02:05:00;67.25;;;31.27;;
37983;SDS011;64625;50.882;4.376;2023-05-02T02:07:29;64.78;;;30.42;;
37983;SDS011;64625;50.882;4.376;2023-05-02T02:09:55;67.80;;;29.45;;
37983;SDS011;64625;50.882;4.376;2023-05-02T02:17:58;66.30;;;32.63;;
37983;SDS011;64625;50.882;4.376;2023-05-02T02:20:27;72.15;;;31.65;;
37983;SDS011;64625;50.882;4.376;2023-05-02T02:22:55;68.35;;;31.65;;
37983;SDS011;64625;50.882;4.376;2023-05-02T02:25:24;68.65;;;32.88;;
37983;SDS011;64625;50.882;4.376;2023-05-02T02:27:51;64.32;;;28.00;;
37983;SDS011;64625;50.882;4.376;2023-05-02T02:30:17;67.18;;;31.73;;
37983;SDS011;64625;50.882;4.376;2023-05-02T02:32:43;61.55;;;29.35;;
37983;SDS011;64625;50.882;4.376;2023-05-02T02:35:09;65.82;;;29.70;;
37983;SDS011;64625;50.882;4.376;2023-05-02T02:40:37;60.28;;;28.60;;
37983;SDS011;64625;50.882;4.376;2023-05-02T02:43:11;56.38;;;29.80;;
37983;SDS011;64625;50.882;4.376;2023-05-02T02:48:40;61.05;;;29.30;;
37983;SDS011;64625;50.882;4.376;2023-05-02T02:57:54;54.92;;;26.80;;
37983;SDS011;64625;50.882;4.376;2023-05-02T03:00:06;58.88;;;24.73;;
37983;SDS011;64625;50.882;4.376;2023-05-02T03:02:40;57.22;;;27.23;;
37983;SDS011;64625;50.882;4.376;2023-05-02T03:05:08;48.80;;;27.10;;
37983;SDS011;64625;50.882;4.376;2023-05-02T03:07:34;48.33;;;25.58;;
37983;SDS011;64625;50.882;4.376;2023-05-02T03:10:03;56.88;;;25.88;;
37983;SDS011;64625;50.882;4.376;2023-05-02T03:12:31;49.70;;;24.60;;
37983;SDS011;64625;50.882;4.376;2023-05-02T03:14:59;48.72;;;24.50;;
37983;SDS011;64625;50.882;4.376;2023-05-02T03:17:37;54.90;;;25.43;;
37983;SDS011;64625;50.882;4.376;2023-05-02T03:20:03;54.95;;;26.45;;
37983;SDS011;64625;50.882;4.376;2023-05-02T03:22:29;50.28;;;26.13;;
37983;SDS011;64625;50.882;4.376;2023-05-02T03:24:55;50.03;;;25.73;;
37983;SDS011;64625;50.882;4.376;2023-05-02T03:27:21;54.60;;;27.75;;
37983;SDS011;64625;50.882;4.376;2023-05-02T03:29:47;43.45;;;24.48;;
37983;SDS011;64625;50.882;4.376;2023-05-02T03:32:13;56.03;;;25.75;;
37983;SDS011;64625;50.882;4.376;2023-05-02T03:34:38;51.83;;;26.45;;
37983;SDS011;64625;50.882;4.376;2023-05-02T03:37:05;57.10;;;26.42;;
37983;SDS011;64625;50.882;4.376;2023-05-02T03:39:31;47.72;;;24.98;;
37983;SDS011;64625;50.882;4.376;2023-05-02T03:41:57;49.50;;;24.75;;
37983;SDS011;64625;50.882;4.376;2023-05-02T03:44:23;48.97;;;25.52;;
37983;SDS011;64625;50.882;4.376;2023-05-02T03:46:49;50.70;;;26.58;;
37983;SDS011;64625;50.882;4.376;2023-05-02T03:49:15;60.90;;;26.90;;
37983;SDS011;64625;50.882;4.376;2023-05-02T03:51:40;60.65;;;27.35;;
37983;SDS011;64625;50.882;4.376;2023-05-02T03:54:08;56.72;;;29.38;;
37983;SDS011;64625;50.882;4.376;2023-05-02T03:56:34;71.32;;;29.92;;
37983;SDS011;64625;50.882;4.376;2023-05-02T03:59:01;56.33;;;28.55;;
37983;SDS011;64625;50.882;4.376;2023-05-02T04:01:28;58.78;;;28.20;;
37983;SDS011;64625;50.882;4.376;2023-05-02T04:03:53;59.30;;;29.13;;
37983;SDS011;64625;50.882;4.376;2023-05-02T04:06:19;60.85;;;27.70;;
37983;SDS011;64625;50.882;4.376;2023-05-02T04:08:45;65.95;;;28.98;;
37983;SDS011;64625;50.882;4.376;2023-05-02T04:11:11;59.95;;;28.80;;
37983;SDS011;64625;50.882;4.376;2023-05-02T04:13:37;62.15;;;29.77;;
37983;SDS011;64625;50.882;4.376;2023-05-02T04:16:03;62.45;;;27.42;;
37983;SDS011;64625;50.882;4.376;2023-05-02T04:18:30;58.35;;;29.73;;
37983;SDS011;64625;50.882;4.376;2023-05-02T04:20:55;61.70;;;29.70;;
37983;SDS011;64625;50.882;4.376;2023-05-02T04:23:21;69.50;;;30.63;;
37983;SDS011;64625;50.882;4.376;2023-05-02T04:25:51;66.28;;;30.65;;
37983;SDS011;64625;50.882;4.376;2023-05-02T04:28:17;68.70;;;32.17;;
37983;SDS011;64625;50.882;4.376;2023-05-02T04:30:44;65.75;;;31.17;;
37983;SDS011;64625;50.882;4.376;2023-05-02T04:33:10;67.32;;;29.48;;
37983;SDS011;64625;50.882;4.376;2023-05-02T04:35:38;73.28;;;32.08;;
37983;SDS011;64625;50.882;4.376;2023-05-02T04:38:05;63.20;;;30.38;;
37983;SDS011;64625;50.882;4.376;2023-05-02T04:40:31;79.00;;;28.58;;
37983;SDS011;64625;50.882;4.376;2023-05-02T04:42:58;69.65;;;30.65;;
37983;SDS011;64625;50.882;4.376;2023-05-02T04:45:24;61.15;;;28.98;;
37983;SDS011;64625;50.882;4.376;2023-05-02T04:47:50;69.63;;;30.80;;
37983;SDS011;64625;50.882;4.376;2023-05-02T04:50:16;66.03;;;29.17;;
37983;SDS011;64625;50.882;4.376;2023-05-02T04:52:42;62.25;;;30.58;;
37983;SDS011;64625;50.882;4.376;2023-05-02T04:55:08;65.00;;;31.85;;
37983;SDS011;64625;50.882;4.376;2023-05-02T04:57:34;65.68;;;31.65;;
37983;SDS011;64625;50.882;4.376;2023-05-02T05:00:01;65.72;;;31.48;;
37983;SDS011;64625;50.882;4.376;2023-05-02T05:02:27;65.47;;;31.10;;
37983;SDS011;64625;50.882;4.376;2023-05-02T05:04:53;69.72;;;30.30;;
37983;SDS011;64625;50.882;4.376;2023-05-02T05:07:18;74.40;;;31.88;;
37983;SDS011;64625;50.882;4.376;2023-05-02T05:09:44;69.18;;;32.30;;
37983;SDS011;64625;50.882;4.376;2023-05-02T05:12:10;62.03;;;28.80;;
37983;SDS011;64625;50.882;4.376;2023-05-02T05:14:36;70.25;;;33.05;;
37983;SDS011;64625;50.882;4.376;2023-05-02T05:17:02;66.40;;;31.15;;
37983;SDS011;64625;50.882;4.376;2023-05-02T05:19:27;59.17;;;27.50;;
37983;SDS011;64625;50.882;4.376;2023-05-02T05:21:53;56.60;;;28.73;;
37983;SDS011;64625;50.882;4.376;2023-05-02T05:24:19;57.65;;;30.33;;
37983;SDS011;64625;50.882;4.376;2023-05-02T05:26:45;61.80;;;28.55;;
37983;SDS011;64625;50.882;4.376;2023-05-02T05:29:11;58.60;;;27.98;;
37983;SDS011;64625;50.882;4.376;2023-05-02T05:31:37;63.78;;;28.85;;
37983;SDS011;64625;50.882;4.376;2023-05-02T05:34:03;56.80;;;28.00;;
37983;SDS011;64625;50.882;4.376;2023-05-02T05:36:29;62.42;;;27.50;;
37983;SDS011;64625;50.882;4.376;2023-05-02T05:38:55;51.03;;;24.25;;
37983;SDS011;64625;50.882;4.376;2023-05-02T05:41:21;47.20;;;24.27;;
37983;SDS011;64625;50.882;4.376;2023-05-02T05:43:48;51.40;;;25.50;;
37983;SDS011;64625;50.882;4.376;2023-05-02T05:46:14;55.70;;;25.67;;
37983;SDS011;64625;50.882;4.376;2023-05-02T05:48:41;54.70;;;24.23;;
37983;SDS011;64625;50.882;4.376;2023-05-02T05:51:07;51.78;;;24.85;;
37983;SDS011;64625;50.882;4.376;2023-05-02T05:53:33;50.20;;;23.95;;
37983;SDS011;64625;50.882;4.376;2023-05-02T05:56:06;51.92;;;21.92;;
37983;SDS011;64625;50.882;4.376;2023-05-02T05:58:33;51.00;;;24.70;;
37983;SDS011;64625;50.882;4.376;2023-05-02T06:00:59;44.63;;;21.98;;
37983;SDS011;64625;50.882;4.376;2023-05-02T06:03:26;50.10;;;24.98;;
37983;SDS011;64625;50.882;4.376;2023-05-02T06:05:52;40.47;;;22.45;;
37983;SDS011;64625;50.882;4.376;2023-05-02T06:08:18;52.45;;;22.27;;
37983;SDS011;64625;50.882;4.376;2023-05-02T06:10:45;42.78;;;23.33;;
37983;SDS011;64625;50.882;4.376;2023-05-02T06:13:11;37.53;;;22.35;;
37983;SDS011;64625;50.882;4.376;2023-05-02T06:15:37;49.10;;;23.58;;
37983;SDS011;64625;50.882;4.376;2023-05-02T06:18:03;49.33;;;21.15;;
37983;SDS011;64625;50.882;4.376;2023-05-02T06:20:29;44.75;;;23.90;;
37983;SDS011;64625;50.882;4.376;2023-05-02T06:22:55;47.45;;;23.67;;
37983;SDS011;64625;50.882;4.376;2023-05-02T06:25:20;38.55;;;23.02;;
37983;SDS011;64625;50.882;4.376;2023-05-02T06:27:46;43.40;;;23.98;;
37983;SDS011;64625;50.882;4.376;2023-05-02T06:30:12;46.40;;;24.00;;
37983;SDS011;64625;50.882;4.376;2023-05-02T06:32:38;46.22;;;24.27;;
37983;SDS011;64625;50.882;4.376;2023-05-02T06:35:05;45.25;;;23.95;;
37983;SDS011;64625;50.882;4.376;2023-05-02T06:37:34;49.67;;;23.45;;
37983;SDS011;64625;50.882;4.376;2023-05-02T06:40:00;39.42;;;24.25;;
37983;SDS011;64625;50.882;4.376;2023-05-02T06:42:26;48.13;;;23.92;;
37983;SDS011;64625;50.882;4.376;2023-05-02T06:44:53;45.08;;;23.52;;
37983;SDS011;64625;50.882;4.376;2023-05-02T06:47:20;51.50;;;26.73;;
37983;SDS011;64625;50.882;4.376;2023-05-02T06:49:49;45.30;;;24.90;;
37983;SDS011;64625;50.882;4.376;2023-05-02T06:52:16;46.97;;;26.30;;
37983;SDS011;64625;50.882;4.376;2023-05-02T06:54:41;46.15;;;26.38;;
37983;SDS011;64625;50.882;4.376;2023-05-02T06:57:07;49.03;;;27.58;;
37983;SDS011;64625;50.882;4.376;2023-05-02T06:59:35;46.88;;;28.35;;
37983;SDS011;64625;50.882;4.376;2023-05-02T07:02:01;43.63;;;26.90;;
37983;SDS011;64625;50.882;4.376;2023-05-02T07:04:26;57.55;;;29.42;;
37983;SDS011;64625;50.882;4.376;2023-05-02T07:06:53;48.75;;;28.30;;
37983;SDS011;64625;50.882;4.376;2023-05-02T07:09:19;47.03;;;26.88;;
37983;SDS011;64625;50.882;4.376;2023-05-02T07:11:45;41.17;;;26.20;;
37983;SDS011;64625;50.882;4.376;2023-05-02T07:14:11;42.92;;;26.45;;
37983;SDS011;64625;50.882;4.376;2023-05-02T07:16:37;42.50;;;25.70;;
37983;SDS011;64625;50.882;4.376;2023-05-02T07:19:02;45.45;;;28.65;;
37983;SDS011;64625;50.882;4.376;2023-05-02T07:21:30;52.38;;;27.70;;
37983;SDS011;64625;50.882;4.376;2023-05-02T07:23:58;37.42;;;23.73;;
37983;SDS011;64625;50.882;4.376;2023-05-02T07:26:24;43.67;;;23.38;;
37983;SDS011;64625;50.882;4.376;2023-05-02T07:28:51;38.50;;;22.77;;
37983;SDS011;64625;50.882;4.376;2023-05-02T07:31:17;39.08;;;22.15;;
37983;SDS011;64625;50.882;4.376;2023-05-02T07:33:43;43.78;;;21.50;;
37983;SDS011;64625;50.882;4.376;2023-05-02T07:36:09;31.95;;;21.25;;
37983;SDS011;64625;50.882;4.376;2023-05-02T07:38:35;38.88;;;19.98;;
37983;SDS011;64625;50.882;4.376;2023-05-02T07:41:01;42.72;;;23.25;;
37983;SDS011;64625;50.882;4.376;2023-05-02T07:43:27;46.85;;;23.77;;
37983;SDS011;64625;50.882;4.376;2023-05-02T07:45:53;32.45;;;20.73;;
37983;SDS011;64625;50.882;4.376;2023-05-02T07:48:22;30.88;;;19.88;;
37983;SDS011;64625;50.882;4.376;2023-05-02T07:50:48;28.23;;;17.60;;
37983;SDS011;64625;50.882;4.376;2023-05-02T07:53:13;26.08;;;14.07;;
37983;SDS011;64625;50.882;4.376;2023-05-02T07:55:39;25.95;;;17.13;;
37983;SDS011;64625;50.882;4.376;2023-05-02T07:58:05;22.15;;;13.63;;
37983;SDS011;64625;50.882;4.376;2023-05-02T08:00:31;20.80;;;12.38;;
37983;SDS011;64625;50.882;4.376;2023-05-02T08:02:57;22.83;;;11.77;;
37983;SDS011;64625;50.882;4.376;2023-05-02T08:05:23;22.90;;;9.85;;
37983;SDS011;64625;50.882;4.376;2023-05-02T08:07:49;19.88;;;11.07;;
37983;SDS011;64625;50.882;4.376;2023-05-02T08:10:14;15.70;;;9.57;;
37983;SDS011;64625;50.882;4.376;2023-05-02T08:12:41;24.63;;;10.45;;
37983;SDS011;64625;50.882;4.376;2023-05-02T08:15:07;15.50;;;9.98;;
37983;SDS011;64625;50.882;4.376;2023-05-02T08:20:22;22.52;;;8.80;;
37983;SDS011;64625;50.882;4.376;2023-05-02T08:22:47;12.18;;;7.05;;
37983;SDS011;64625;50.882;4.376;2023-05-02T08:25:14;13.18;;;5.97;;
37983;SDS011;64625;50.882;4.376;2023-05-02T08:27:40;9.93;;;5.97;;
37983;SDS011;64625;50.882;4.376;2023-05-02T08:30:06;7.80;;;5.85;;
37983;SDS011;64625;50.882;4.376;2023-05-02T08:32:32;18.00;;;6.55;;
37983;SDS011;64625;50.882;4.376;2023-05-02T08:34:59;8.73;;;5.57;;
37983;SDS011;64625;50.882;4.376;2023-05-02T08:37:26;9.70;;;4.68;;
37983;SDS011;64625;50.882;4.376;2023-05-02T08:39:52;5.70;;;4.05;;
37983;SDS011;64625;50.882;4.376;2023-05-02T08:42:18;5.97;;;3.63;;
37983;SDS011;64625;50.882;4.376;2023-05-02T08:44:47;13.48;;;3.53;;
37983;SDS011;64625;50.882;4.376;2023-05-02T08:47:13;7.47;;;2.80;;
37983;SDS011;64625;50.882;4.376;2023-05-02T08:49:40;7.72;;;2.97;;
37983;SDS011;64625;50.882;4.376;2023-05-02T08:52:08;20.38;;;4.20;;
37983;SDS011;64625;50.882;4.376;2023-05-02T08:54:36;12.07;;;3.75;;
37983;SDS011;64625;50.882;4.376;2023-05-02T08:57:03;11.82;;;3.83;;
37983;SDS011;64625;50.882;4.376;2023-05-02T08:59:30;16.30;;;4.55;;
37983;SDS011;64625;50.882;4.376;2023-05-02T09:02:00;8.27;;;3.35;;
37983;SDS011;64625;50.882;4.376;2023-05-02T09:04:30;7.68;;;3.72;;
37983;SDS011;64625;50.882;4.376;2023-05-02T09:06:59;13.35;;;3.92;;
37983;SDS011;64625;50.882;4.376;2023-05-02T09:09:26;15.48;;;5.95;;
37983;SDS011;64625;50.882;4.376;2023-05-02T09:11:55;11.05;;;4.22;;
37983;SDS011;64625;50.882;4.376;2023-05-02T09:14:22;11.95;;;4.60;;
37983;SDS011;64625;50.882;4.376;2023-05-02T09:16:48;9.45;;;5.03;;
37983;SDS011;64625;50.882;4.376;2023-05-02T09:19:24;11.07;;;4.85;;
37983;SDS011;64625;50.882;4.376;2023-05-02T09:21:50;11.82;;;4.55;;
37983;SDS011;64625;50.882;4.376;2023-05-02T09:24:18;15.40;;;4.90;;
37983;SDS011;64625;50.882;4.376;2023-05-02T09:26:58;10.55;;;5.68;;
37983;SDS011;64625;50.882;4.376;2023-05-02T09:29:26;8.05;;;4.35;;
37983;SDS011;64625;50.882;4.376;2023-05-02T09:31:54;19.95;;;5.65;;
37983;SDS011;64625;50.882;4.376;2023-05-02T09:34:21;9.43;;;5.32;;
37983;SDS011;64625;50.882;4.376;2023-05-02T09:36:48;11.75;;;5.28;;
37983;SDS011;64625;50.882;4.376;2023-05-02T09:39:17;10.93;;;5.07;;
37983;SDS011;64625;50.882;4.376;2023-05-02T09:41:45;10.80;;;4.97;;
37983;SDS011;64625;50.882;4.376;2023-05-02T09:44:18;17.45;;;4.93;;
37983;SDS011;64625;50.882;4.376;2023-05-02T09:46:55;16.92;;;4.53;;
37983;SDS011;64625;50.882;4.376;2023-05-02T09:52:16;8.23;;;3.85;;
37983;SDS011;64625;50.882;4.376;2023-05-02T09:54:46;15.03;;;4.13;;
37983;SDS011;64625;50.882;4.376;2023-05-02T09:57:14;22.38;;;4.85;;
37983;SDS011;64625;50.882;4.376;2023-05-02T09:59:40;6.65;;;4.28;;
37983;SDS011;64625;50.882;4.376;2023-05-02T10:02:17;14.02;;;4.88;;
37983;SDS011;64625;50.882;4.376;2023-05-02T10:04:45;9.02;;;3.95;;
37983;SDS011;64625;50.882;4.376;2023-05-02T10:07:13;14.00;;;4.53;;
37983;SDS011;64625;50.882;4.376;2023-05-02T10:09:41;6.75;;;4.25;;
37983;SDS011;64625;50.882;4.376;2023-05-02T10:12:14;11.45;;;4.43;;
37983;SDS011;64625;50.882;4.376;2023-05-02T10:14:42;13.73;;;5.82;;
37983;SDS011;64625;50.882;4.376;2023-05-02T10:17:21;15.93;;;3.20;;
37983;SDS011;64625;50.882;4.376;2023-05-02T10:19:56;11.03;;;3.80;;
37983;SDS011;64625;50.882;4.376;2023-05-02T10:22:33;6.70;;;3.45;;
37983;SDS011;64625;50.882;4.376;2023-05-02T10:25:00;8.23;;;3.90;;
37983;SDS011;64625;50.882;4.376;2023-05-02T10:27:30;6.32;;;4.15;;
37983;SDS011;64625;50.882;4.376;2023-05-02T10:29:57;10.57;;;3.55;;
37983;SDS011;64625;50.882;4.376;2023-05-02T10:32:25;7.97;;;3.60;;
37983;SDS011;64625;50.882;4.376;2023-05-02T10:34:55;14.27;;;3.60;;
37983;SDS011;64625;50.882;4.376;2023-05-02T10:39:53;11.38;;;3.58;;
37983;SDS011;64625;50.882;4.376;2023-05-02T10:42:22;14.77;;;4.28;;
37983;SDS011;64625;50.882;4.376;2023-05-02T10:44:48;9.35;;;4.57;;
37983;SDS011;64625;50.882;4.376;2023-05-02T10:47:18;9.02;;;4.47;;
37983;SDS011;64625;50.882;4.376;2023-05-02T10:49:52;10.55;;;4.13;;
37983;SDS011;64625;50.882;4.376;2023-05-02T10:52:27;11.18;;;5.70;;
37983;SDS011;64625;50.882;4.376;2023-05-02T11:00:26;13.50;;;4.03;;
37983;SDS011;64625;50.882;4.376;2023-05-02T11:02:54;12.05;;;4.32;;
37983;SDS011;64625;50.882;4.376;2023-05-02T11:05:22;12.68;;;4.15;;
37983;SDS011;64625;50.882;4.376;2023-05-02T11:07:49;10.52;;;3.85;;
37983;SDS011;64625;50.882;4.376;2023-05-02T11:10:42;15.68;;;4.18;;
37983;SDS011;64625;50.882;4.376;2023-05-02T11:13:10;20.10;;;4.40;;
37983;SDS011;64625;50.882;4.376;2023-05-02T11:18:05;49.53;;;10.98;;
37983;SDS011;64625;50.882;4.376;2023-05-02T11:20:32;17.50;;;9.85;;
37983;SDS011;64625;50.882;4.376;2023-05-02T11:23:18;0.20;;;0.20;;
37983;SDS011;64625;50.882;4.376;2023-05-02T11:25:46;0.20;;;0.20;;
37983;SDS011;64625;50.882;4.376;2023-05-02T11:31:05;0.20;;;0.20;;
37983;SDS011;64625;50.882;4.376;2023-05-02T11:33:32;0.35;;;0.35;;
37983;SDS011;64625;50.882;4.376;2023-05-02T11:35:58;0.30;;;0.30;;
37983;SDS011;64625;50.882;4.376;2023-05-02T11:38:25;0.45;;;0.45;;
37983;SDS011;64625;50.882;4.376;2023-05-02T11:40:59;0.30;;;0.30;;
37983;SDS011;64625;50.882;4.376;2023-05-02T11:43:27;0.45;;;0.45;;
37983;SDS011;64625;50.882;4.376;2023-05-02T11:45:54;0.30;;;0.30;;
37983;SDS011;64625;50.882;4.376;2023-05-02T11:48:21;0.30;;;0.30;;
37983;SDS011;64625;50.882;4.376;2023-05-02T11:50:52;0.30;;;0.30;;
37983;SDS011;64625;50.882;4.376;2023-05-02T11:53:21;0.30;;;0.30;;
37983;SDS011;64625;50.882;4.376;2023-05-02T11:55:52;0.30;;;0.30;;
37983;SDS011;64625;50.882;4.376;2023-05-02T11:58:20;0.30;;;0.30;;
37983;SDS011;64625;50.882;4.376;2023-05-02T12:00:54;0.20;;;0.20;;
37983;SDS011;64625;50.882;4.376;2023-05-02T12:03:25;0.82;;;0.82;;
37983;SDS011;64625;50.882;4.376;2023-05-02T12:05:53;0.20;;;0.20;;
37983;SDS011;64625;50.882;4.376;2023-05-02T12:08:24;0.30;;;0.30;;
37983;SDS011;64625;50.882;4.376;2023-05-02T12:13:23;0.20;;;0.20;;
37983;SDS011;64625;50.882;4.376;2023-05-02T12:15:51;0.30;;;0.30;;
37983;SDS011;64625;50.882;4.376;2023-05-02T12:18:18;0.40;;;0.40;;
37983;SDS011;64625;50.882;4.376;2023-05-02T12:20:48;0.30;;;0.30;;
37983;SDS011;64625;50.882;4.376;2023-05-02T12:23:16;0.30;;;0.30;;
37983;SDS011;64625;50.882;4.376;2023-05-02T12:25:44;0.30;;;0.30;;
37983;SDS011;64625;50.882;4.376;2023-05-02T12:28:10;0.28;;;0.28;;
37983;SDS011;64625;50.882;4.376;2023-05-02T12:30:36;0.45;;;0.45;;
37983;SDS011;64625;50.882;4.376;2023-05-02T12:33:03;7.97;;;2.08;;
37983;SDS011;64625;50.882;4.376;2023-05-02T12:35:31;0.30;;;0.30;;
37983;SDS011;64625;50.882;4.376;2023-05-02T12:40:53;0.30;;;0.30;;
37983;SDS011;64625;50.882;4.376;2023-05-02T12:43:21;0.30;;;0.30;;
37983;SDS011;64625;50.882;4.376;2023-05-02T12:45:48;0.40;;;0.40;;
37983;SDS011;64625;50.882;4.376;2023-05-02T12:50:51;0.20;;;0.20;;
37983;SDS011;64625;50.882;4.376;2023-05-02T12:56:08;0.20;;;0.20;;
37983;SDS011;64625;50.882;4.376;2023-05-02T13:01:11;0.40;;;0.40;;
37983;SDS011;64625;50.882;4.376;2023-05-02T13:03:38;0.20;;;0.20;;
37983;SDS011;64625;50.882;4.376;2023-05-02T13:06:05;0.20;;;0.20;;
37983;SDS011;64625;50.882;4.376;2023-05-02T13:08:31;0.20;;;0.20;;
37983;SDS011;64625;50.882;4.376;2023-05-02T13:10:58;0.20;;;0.20;;
37983;SDS011;64625;50.882;4.376;2023-05-02T13:13:28;0.20;;;0.20;;
37983;SDS011;64625;50.882;4.376;2023-05-02T13:15:56;0.28;;;0.28;;
37983;SDS011;64625;50.882;4.376;2023-05-02T13:18:22;0.20;;;0.20;;
37983;SDS011;64625;50.882;4.376;2023-05-02T13:20:49;0.20;;;0.20;;
37983;SDS011;64625;50.882;4.376;2023-05-02T13:23:14;0.30;;;0.30;;
37983;SDS011;64625;50.882;4.376;2023-05-02T13:25:41;0.28;;;0.28;;
37983;SDS011;64625;50.882;4.376;2023-05-02T13:28:06;0.20;;;0.20;;
37983;SDS011;64625;50.882;4.376;2023-05-02T13:30:32;0.20;;;0.20;;
37983;SDS011;64625;50.882;4.376;2023-05-02T13:32:58;0.20;;;0.20;;
37983;SDS011;64625;50.882;4.376;2023-05-02T13:35:24;0.20;;;0.20;;
37983;SDS011;64625;50.882;4.376;2023-05-02T13:37:50;0.38;;;0.38;;
37983;SDS011;64625;50.882;4.376;2023-05-02T13:40:16;0.20;;;0.20;;
37983;SDS011;64625;50.882;4.376;2023-05-02T13:42:43;0.45;;;0.45;;
37983;SDS011;64625;50.882;4.376;2023-05-02T13:45:08;0.77;;;0.60;;
37983;SDS011;64625;50.882;4.376;2023-05-02T13:47:35;11.85;;;5.30;;
37983;SDS011;64625;50.882;4.376;2023-05-02T13:50:01;17.60;;;4.90;;
37983;SDS011;64625;50.882;4.376;2023-05-02T13:52:28;10.32;;;4.35;;
37983;SDS011;64625;50.882;4.376;2023-05-02T13:54:54;16.58;;;4.13;;
37983;SDS011;64625;50.882;4.376;2023-05-02T13:57:20;12.73;;;4.68;;
37983;SDS011;64625;50.882;4.376;2023-05-02T13:59:46;13.70;;;5.68;;
37983;SDS011;64625;50.882;4.376;2023-05-02T14:02:12;11.57;;;4.97;;
37983;SDS011;64625;50.882;4.376;2023-05-02T14:04:37;11.80;;;4.70;;
37983;SDS011;64625;50.882;4.376;2023-05-02T14:07:03;11.55;;;4.78;;
37983;SDS011;64625;50.882;4.376;2023-05-02T14:09:29;12.18;;;4.80;;
37983;SDS011;64625;50.882;4.376;2023-05-02T14:11:55;21.10;;;4.72;;
37983;SDS011;64625;50.882;4.376;2023-05-02T14:14:22;13.80;;;4.25;;
37983;SDS011;64625;50.882;4.376;2023-05-02T14:16:48;12.30;;;3.83;;
37983;SDS011;64625;50.882;4.376;2023-05-02T14:19:14;12.40;;;4.80;;
37983;SDS011;64625;50.882;4.376;2023-05-02T14:21:40;15.40;;;4.00;;
37983;SDS011;64625;50.882;4.376;2023-05-02T14:24:06;17.13;;;6.63;;
37983;SDS011;64625;50.882;4.376;2023-05-02T14:26:32;5.95;;;3.67;;
37983;SDS011;64625;50.882;4.376;2023-05-02T14:28:58;7.88;;;4.00;;
37983;SDS011;64625;50.882;4.376;2023-05-02T14:31:24;7.20;;;3.33;;
37983;SDS011;64625;50.882;4.376;2023-05-02T14:33:51;12.77;;;3.55;;
37983;SDS011;64625;50.882;4.376;2023-05-02T14:36:17;18.95;;;4.75;;
37983;SDS011;64625;50.882;4.376;2023-05-02T14:38:43;8.52;;;5.47;;
37983;SDS011;64625;50.882;4.376;2023-05-02T14:41:08;11.77;;;3.55;;
37983;SDS011;64625;50.882;4.376;2023-05-02T14:43:34;14.98;;;4.13;;
37983;SDS011;64625;50.882;4.376;2023-05-02T14:46:01;12.23;;;4.68;;
37983;SDS011;64625;50.882;4.376;2023-05-02T14:48:28;19.02;;;4.30;;
37983;SDS011;64625;50.882;4.376;2023-05-02T14:50:54;9.18;;;3.35;;
37983;SDS011;64625;50.882;4.376;2023-05-02T14:53:21;9.93;;;4.78;;
37983;SDS011;64625;50.882;4.376;2023-05-02T14:55:47;10.13;;;3.83;;
37983;SDS011;64625;50.882;4.376;2023-05-02T14:58:13;15.50;;;4.05;;
37983;SDS011;64625;50.882;4.376;2023-05-02T15:00:44;11.85;;;4.00;;
37983;SDS011;64625;50.882;4.376;2023-05-02T15:03:11;8.68;;;3.90;;
37983;SDS011;64625;50.882;4.376;2023-05-02T15:05:37;8.68;;;3.60;;
37983;SDS011;64625;50.882;4.376;2023-05-02T15:08:04;7.95;;;2.95;;
37983;SDS011;64625;50.882;4.376;2023-05-02T15:10:30;12.63;;;3.58;;
37983;SDS011;64625;50.882;4.376;2023-05-02T15:12:58;16.20;;;3.28;;
37983;SDS011;64625;50.882;4.376;2023-05-02T15:15:24;23.02;;;4.95;;
37983;SDS011;64625;50.882;4.376;2023-05-02T15:17:50;12.02;;;5.07;;
37983;SDS011;64625;50.882;4.376;2023-05-02T15:20:17;18.90;;;4.60;;
37983;SDS011;64625;50.882;4.376;2023-05-02T15:22:43;9.35;;;4.10;;
37983;SDS011;64625;50.882;4.376;2023-05-02T15:25:11;12.68;;;4.35;;
37983;SDS011;64625;50.882;4.376;2023-05-02T15:27:37;14.23;;;4.32;;
37983;SDS011;64625;50.882;4.376;2023-05-02T15:30:03;11.07;;;5.05;;
37983;SDS011;64625;50.882;4.376;2023-05-02T15:32:36;10.60;;;5.18;;
37983;SDS011;64625;50.882;4.376;2023-05-02T15:35:03;11.00;;;4.28;;